Time;durP1;ratioP1;P1;durP2;ratioP2;P2;SDS_P1;SDS_P2;PMS_P1;PMS_P2;Temp;Humidity;BMP_temperature;BMP_pressure;BME280_temperature;BME280_humidity;BME280_pressure;Samples;Min_cycle;Max_cycle;Signal;HPM_P1;HPM_P2
2021/01/06 00:02:22;;;;;;;8.73;1.90;;;;;;;;;;5071952;28;20051;-76
2021/01/06 00:05:27;;;;;;;14.02;1.88;;;;;;;;;;5072275;28;20032;-76
2021/01/06 00:08:31;;;;;;;11.88;1.38;;;;;;;;;;5082798;28;20051;-75
2021/01/06 00:11:36;;;;;;;8.25;1.60;;;;;;;;;;5071087;28;20044;-75
2021/01/06 00:14:40;;;;;;;4.57;1.58;;;;;;;;;;5072138;28;20048;-76
2021/01/06 00:17:45;;;;;;;3.85;1.10;;;;;;;;;;5071190;28;20041;-76
2021/01/06 00:20:49;;;;;;;5.57;0.95;;;;;;;;;;5071812;28;20037;-75
2021/01/06 00:23:56;;;;;;;8.38;0.90;;;;;;;;;;5071137;28;20041;-75
2021/01/06 00:27:01;;;;;;;6.82;1.13;;;;;;;;;;5071588;28;20044;-75
2021/01/06 00:30:09;;;;;;;8.35;1.50;;;;;;;;;;5071374;28;20657;-76
2021/01/06 00:33:15;;;;;;;12.43;1.98;;;;;;;;;;5071518;28;20040;-76
2021/01/06 00:36:21;;;;;;;13.00;1.52;;;;;;;;;;5071940;28;20032;-76
2021/01/06 00:39:25;;;;;;;10.25;1.50;;;;;;;;;;5071632;28;20507;-75
2021/01/06 00:42:30;;;;;;;7.22;1.60;;;;;;;;;;5071408;28;20039;-76
2021/01/06 00:45:35;;;;;;;12.65;1.85;;;;;;;;;;5070592;28;20040;-76
2021/01/06 00:48:40;;;;;;;14.27;7.35;;;;;;;;;;5082464;28;20033;-76
2021/01/06 00:51:47;;;;;;;10.82;2.70;;;;;;;;;;5071318;28;20057;-76
2021/01/06 00:54:51;;;;;;;10.70;3.30;;;;;;;;;;5070413;28;20061;-75
2021/01/06 00:57:56;;;;;;;8.40;3.13;;;;;;;;;;5070485;28;20036;-76
2021/01/06 01:01:02;;;;;;;6.32;1.90;;;;;;;;;;5070449;28;20036;-76
2021/01/06 01:04:15;;;;;;;11.70;2.80;;;;;;;;;;5070013;28;20399;-75
2021/01/06 01:07:19;;;;;;;9.82;2.58;;;;;;;;;;5072293;28;20048;-76
2021/01/06 01:10:27;;;;;;;8.20;2.60;;;;;;;;;;5071148;28;20041;-76
2021/01/06 01:13:31;;;;;;;8.20;2.17;;;;;;;;;;5070814;28;20044;-76
2021/01/06 01:16:40;;;;;;;5.50;2.05;;;;;;;;;;5070286;28;20472;-76
2021/01/06 01:19:45;;;;;;;7.53;2.28;;;;;;;;;;5071223;28;20044;-76
2021/01/06 01:22:49;;;;;;;9.05;2.22;;;;;;;;;;5070840;28;20040;-76
2021/01/06 01:25:54;;;;;;;6.10;1.50;;;;;;;;;;5070871;28;20032;-76
2021/01/06 01:28:58;;;;;;;10.07;1.70;;;;;;;;;;5071007;28;20032;-75
2021/01/06 01:32:02;;;;;;;10.85;1.83;;;;;;;;;;5069656;28;20398;-76
2021/01/06 01:35:08;;;;;;;4.70;1.60;;;;;;;;;;5070711;28;20032;-76
2021/01/06 01:38:19;;;;;;;5.45;1.70;;;;;;;;;;5081643;28;20037;-75
2021/01/06 01:41:26;;;;;;;7.00;1.85;;;;;;;;;;5074497;28;20053;-76
2021/01/06 01:44:30;;;;;;;3.50;1.58;;;;;;;;;;5075046;28;20041;-75
2021/01/06 01:47:43;;;;;;;6.07;1.80;;;;;;;;;;5074616;28;20380;-76
2021/01/06 01:50:48;;;;;;;7.72;2.15;;;;;;;;;;5074354;28;20040;-76
2021/01/06 01:54:01;;;;;;;6.50;1.67;;;;;;;;;;5074394;28;20045;-76
2021/01/06 01:57:05;;;;;;;4.55;1.77;;;;;;;;;;5074712;28;20064;-76
2021/01/06 02:00:17;;;;;;;10.10;1.85;;;;;;;;;;5074534;28;20041;-76
2021/01/06 02:03:37;;;;;;;7.63;1.60;;;;;;;;;;5074299;28;20040;-75
2021/01/06 02:06:58;;;;;;;12.40;1.90;;;;;;;;;;5073991;28;20052;-76
2021/01/06 02:10:28;;;;;;;12.20;2.10;;;;;;;;;;5074362;28;20044;-76
2021/01/06 02:13:39;;;;;;;9.18;1.67;;;;;;;;;;5073823;28;20303;-76
2021/01/06 02:17:04;;;;;;;11.65;2.15;;;;;;;;;;5073982;28;20032;-76
2021/01/06 02:20:16;;;;;;;11.63;2.72;;;;;;;;;;5084919;28;20040;-75
2021/01/06 02:23:20;;;;;;;12.65;1.60;;;;;;;;;;5074219;28;20048;-76
2021/01/06 02:26:26;;;;;;;14.05;1.67;;;;;;;;;;5074143;28;20033;-75
2021/01/06 02:29:31;;;;;;;13.57;1.80;;;;;;;;;;5073812;28;20044;-76
2021/01/06 02:32:36;;;;;;;10.60;1.65;;;;;;;;;;5072799;28;20048;-75
2021/01/06 02:35:40;;;;;;;17.50;1.63;;;;;;;;;;5073104;28;20060;-75
2021/01/06 02:38:44;;;;;;;8.52;1.90;;;;;;;;;;5073819;28;20040;-76
2021/01/06 02:41:49;;;;;;;7.57;1.85;;;;;;;;;;5073708;28;20037;-76
2021/01/06 02:44:53;;;;;;;8.00;1.45;;;;;;;;;;5061262;28;20040;-76
2021/01/06 02:47:57;;;;;;;8.70;1.35;;;;;;;;;;5073680;28;20032;-75
2021/01/06 02:51:02;;;;;;;6.10;1.73;;;;;;;;;;5072614;28;20045;-76
2021/01/06 02:54:09;;;;;;;7.82;1.83;;;;;;;;;;5073288;28;20377;-76
2021/01/06 02:57:14;;;;;;;10.65;1.60;;;;;;;;;;5073375;28;20480;-76
2021/01/06 03:00:20;;;;;;;11.07;1.48;;;;;;;;;;5073112;28;20040;-75
2021/01/06 03:03:26;;;;;;;5.30;1.65;;;;;;;;;;5072137;28;20045;-76
2021/01/06 03:06:39;;;;;;;9.00;1.60;;;;;;;;;;5073142;28;20500;-76
2021/01/06 03:09:44;;;;;;;9.55;2.15;;;;;;;;;;5073292;28;20377;-76
2021/01/06 03:12:50;;;;;;;13.98;2.00;;;;;;;;;;5072317;28;20045;-76
2021/01/06 03:15:54;;;;;;;8.88;1.73;;;;;;;;;;5072929;28;20037;-75
2021/01/06 03:18:58;;;;;;;9.52;2.00;;;;;;;;;;5072062;28;20485;-76
2021/01/06 03:22:05;;;;;;;8.80;1.52;;;;;;;;;;5072710;28;20037;-75
2021/01/06 03:25:11;;;;;;;11.52;1.60;;;;;;;;;;5073124;28;20040;-75
2021/01/06 03:28:17;;;;;;;6.72;1.98;;;;;;;;;;5072869;28;20069;-75
2021/01/06 03:31:24;;;;;;;8.95;1.55;;;;;;;;;;5072851;28;20036;-76
2021/01/06 03:34:36;;;;;;;9.73;2.17;;;;;;;;;;5072572;28;20044;-75
2021/01/06 03:37:44;;;;;;;11.50;1.60;;;;;;;;;;5072558;28;20040;-75
2021/01/06 03:40:50;;;;;;;13.85;2.20;;;;;;;;;;5072623;28;20032;-76
2021/01/06 03:44:03;;;;;;;16.75;3.60;;;;;;;;;;5072648;28;20040;-76
2021/01/06 03:47:13;;;;;;;8.90;2.63;;;;;;;;;;5072466;28;20376;-76
2021/01/06 03:50:26;;;;;;;5.50;2.45;;;;;;;;;;5072295;28;20032;-75
2021/01/06 03:53:33;;;;;;;9.80;2.65;;;;;;;;;;5072147;28;20057;-76
2021/01/06 03:56:39;;;;;;;10.63;2.80;;;;;;;;;;5072072;28;20037;-75
2021/01/06 03:59:46;;;;;;;9.38;2.65;;;;;;;;;;5072384;28;20051;-75
2021/01/06 04:02:52;;;;;;;8.88;1.95;;;;;;;;;;5071267;28;20040;-76
2021/01/06 04:05:58;;;;;;;8.13;2.17;;;;;;;;;;5071853;28;20464;-76
2021/01/06 04:09:04;;;;;;;8.02;2.33;;;;;;;;;;5071962;28;20472;-76
2021/01/06 04:12:11;;;;;;;7.07;2.60;;;;;;;;;;5071780;28;20029;-76
2021/01/06 04:15:16;;;;;;;9.20;2.13;;;;;;;;;;5071187;28;20045;-76
2021/01/06 04:18:20;;;;;;;7.50;1.77;;;;;;;;;;5072033;28;20036;-76
2021/01/06 04:21:29;;;;;;;5.65;1.70;;;;;;;;;;5071532;28;20473;-75
2021/01/06 04:24:35;;;;;;;6.45;1.50;;;;;;;;;;5082250;28;20028;-76
2021/01/06 04:27:39;;;;;;;4.13;1.05;;;;;;;;;;5071567;28;20044;-76
2021/01/06 04:31:02;;;;;;;9.07;1.60;;;;;;;;;;5082522;28;20467;-76
2021/01/06 04:34:06;;;;;;;4.60;0.90;;;;;;;;;;5071503;28;20056;-76
2021/01/06 04:37:10;;;;;;;3.53;0.82;;;;;;;;;;5071625;28;20381;-76
2021/01/06 04:40:17;;;;;;;6.70;1.05;;;;;;;;;;5070806;28;20044;-76
2021/01/06 04:43:39;;;;;;;4.82;0.65;;;;;;;;;;5071260;28;20044;-77
2021/01/06 04:47:02;;;;;;;6.40;1.20;;;;;;;;;;5071193;28;20041;-76
2021/01/06 04:50:15;;;;;;;5.13;1.10;;;;;;;;;;5071264;28;20056;-77
2021/01/06 04:53:39;;;;;;;9.43;1.00;;;;;;;;;;5071287;28;20581;-76
2021/01/06 04:57:01;;;;;;;8.35;1.10;;;;;;;;;;5070498;28;20040;-76
2021/01/06 05:00:08;;;;;;;10.55;1.40;;;;;;;;;;5071194;28;20045;-76
2021/01/06 05:03:13;;;;;;;10.88;1.63;;;;;;;;;;5071001;28;20028;-76
2021/01/06 05:06:33;;;;;;;4.45;0.82;;;;;;;;;;5071052;28;20044;-76
2021/01/06 05:09:43;;;;;;;3.73;1.03;;;;;;;;;;5071112;28;20036;-75
2021/01/06 05:12:49;;;;;;;2.50;0.65;;;;;;;;;;5071034;28;20290;-76
2021/01/06 05:16:00;;;;;;;4.88;0.70;;;;;;;;;;5069844;28;20036;-75
2021/01/06 05:19:05;;;;;;;10.75;1.45;;;;;;;;;;5070787;28;20052;-75
2021/01/06 05:22:11;;;;;;;4.75;0.65;;;;;;;;;;5070997;28;20535;-76
2021/01/06 05:25:17;;;;;;;3.50;0.73;;;;;;;;;;5071197;28;20040;-76
2021/01/06 05:28:22;;;;;;;3.67;0.80;;;;;;;;;;5081814;28;20040;-77
2021/01/06 05:31:26;;;;;;;7.20;1.10;;;;;;;;;;5069850;28;20052;-77
2021/01/06 05:34:37;;;;;;;4.50;0.93;;;;;;;;;;5070720;28;20078;-77
2021/01/06 05:37:43;;;;;;;3.50;1.20;;;;;;;;;;5070938;28;20041;-77
2021/01/06 05:40:47;;;;;;;8.25;1.45;;;;;;;;;;5070895;28;20041;-77
2021/01/06 05:43:53;;;;;;;7.13;2.45;;;;;;;;;;5070764;28;20032;-77
2021/01/06 05:46:58;;;;;;;6.20;1.30;;;;;;;;;;5070541;28;20377;-78
2021/01/06 05:50:22;;;;;;;4.80;1.30;;;;;;;;;;5070755;28;20036;-78
2021/01/06 05:53:36;;;;;;;1.65;0.63;;;;;;;;;;5069718;28;20492;-77
2021/01/06 05:56:46;;;;;;;3.47;0.90;;;;;;;;;;5070533;28;20385;-77
2021/01/06 05:59:51;;;;;;;3.00;1.35;;;;;;;;;;5070734;28;20036;-78
2021/01/06 06:03:14;;;;;;;5.78;1.73;;;;;;;;;;5070557;28;20040;-78
2021/01/06 06:06:37;;;;;;;3.67;0.68;;;;;;;;;;5070462;28;20045;-78
2021/01/06 06:09:49;;;;;;;2.35;0.60;;;;;;;;;;5070528;28;20049;-77
2021/01/06 06:12:54;;;;;;;2.58;0.70;;;;;;;;;;5070502;28;20037;-77
2021/01/06 06:16:05;;;;;;;1.60;0.82;;;;;;;;;;5070699;28;20041;-77
2021/01/06 06:19:28;;;;;;;2.95;0.63;;;;;;;;;;5070189;28;20029;-77
2021/01/06 06:22:39;;;;;;;2.10;0.73;;;;;;;;;;5070585;28;20048;-78
2021/01/06 06:25:55;;;;;;;2.20;0.98;;;;;;;;;;5070412;28;20475;-77
2021/01/06 06:28:59;;;;;;;1.80;1.17;;;;;;;;;;5074085;28;20369;-77
2021/01/06 06:32:05;;;;;;;3.30;1.10;;;;;;;;;;5073680;28;20040;-78
2021/01/06 06:35:28;;;;;;;3.10;1.00;;;;;;;;;;5074004;28;20052;-78
2021/01/06 06:38:34;;;;;;;2.38;1.10;;;;;;;;;;5074103;28;20044;-78
2021/01/06 06:41:40;;;;;;;5.90;1.40;;;;;;;;;;5073501;28;20373;-77
2021/01/06 06:44:57;;;;;;;2.53;1.27;;;;;;;;;;5073718;28;20036;-78
2021/01/06 06:48:15;;;;;;;6.60;3.15;;;;;;;;;;5073761;28;20040;-78
2021/01/06 06:51:29;;;;;;;10.02;2.53;;;;;;;;;;5073613;28;20032;-78
2021/01/06 06:54:38;;;;;;;4.68;1.30;;;;;;;;;;5073420;28;20052;-77
2021/01/06 06:58:01;;;;;;;1.88;1.38;;;;;;;;;;5073455;28;20472;-77
2021/01/06 07:01:09;;;;;;;4.00;1.77;;;;;;;;;;5073046;28;20036;-77
2021/01/06 07:04:16;;;;;;;17.33;6.22;;;;;;;;;;5073456;28;20037;-77
2021/01/06 07:07:32;;;;;;;4.50;2.00;;;;;;;;;;5073086;28;20047;-77
2021/01/06 07:10:46;;;;;;;6.93;1.60;;;;;;;;;;5073213;28;20029;-77
2021/01/06 07:13:55;;;;;;;12.65;1.92;;;;;;;;;;5072333;28;20496;-77
2021/01/06 07:17:01;;;;;;;13.30;2.40;;;;;;;;;;5072981;28;20035;-77
2021/01/06 07:20:14;;;;;;;3.50;1.60;;;;;;;;;;5073227;28;20037;-77
2021/01/06 07:23:22;;;;;;;9.73;1.70;;;;;;;;;;5073164;28;20048;-78
2021/01/06 07:26:29;;;;;;;5.93;1.75;;;;;;;;;;5073001;28;20044;-76
2021/01/06 07:29:44;;;;;;;3.78;1.60;;;;;;;;;;5073051;28;20037;-77
2021/01/06 07:32:49;;;;;;;6.43;2.00;;;;;;;;;;5083517;28;20041;-76
2021/01/06 07:35:53;;;;;;;6.82;1.92;;;;;;;;;;5072728;28;20041;-78
2021/01/06 07:38:57;;;;;;;9.98;3.17;;;;;;;;;;5072456;28;20040;-78
2021/01/06 07:42:04;;;;;;;5.20;2.25;;;;;;;;;;5083495;28;20044;-77
2021/01/06 07:45:20;;;;;;;5.40;2.58;;;;;;;;;;5072327;28;20037;-78
2021/01/06 07:48:32;;;;;;;7.55;3.88;;;;;;;;;;5072613;28;20040;-74
2021/01/06 07:51:42;;;;;;;13.68;4.55;;;;;;;;;;5072544;28;20048;-74
2021/01/06 07:54:52;;;;;;;10.18;3.83;;;;;;;;;;5072242;28;20049;-74
2021/01/06 07:58:02;;;;;;;6.55;3.05;;;;;;;;;;5072291;28;20045;-75
2021/01/06 08:01:06;;;;;;;6.82;3.13;;;;;;;;;;5072252;28;20040;-75
2021/01/06 08:04:19;;;;;;;35.13;20.95;;;;;;;;;;5071989;28;20032;-75
2021/01/06 08:07:26;;;;;;;14.25;7.63;;;;;;;;;;5070938;28;20066;-75
2021/01/06 08:10:31;;;;;;;13.85;5.50;;;;;;;;;;5071946;28;20049;-75
2021/01/06 08:13:38;;;;;;;6.25;2.80;;;;;;;;;;5071593;28;20048;-75
2021/01/06 08:16:51;;;;;;;9.65;3.47;;;;;;;;;;5071173;28;20366;-76
2021/01/06 08:20:00;;;;;;;4.97;3.10;;;;;;;;;;5071718;28;20048;-76
2021/01/06 08:23:27;;;;;;;6.95;2.20;;;;;;;;;;5071980;28;20044;-75
2021/01/06 08:26:32;;;;;;;21.02;10.50;;;;;;;;;;5071966;28;20029;-76
2021/01/06 08:29:37;;;;;;;18.33;5.63;;;;;;;;;;5071615;28;20044;-75
2021/01/06 08:32:41;;;;;;;10.40;3.75;;;;;;;;;;5071676;28;20044;-75
2021/01/06 08:35:49;;;;;;;10.02;3.42;;;;;;;;;;5071641;28;20056;-75
2021/01/06 08:39:05;;;;;;;12.70;4.50;;;;;;;;;;5071352;28;20037;-75
2021/01/06 08:42:11;;;;;;;11.38;4.13;;;;;;;;;;5071507;28;20041;-76
2021/01/06 08:45:35;;;;;;;9.80;6.03;;;;;;;;;;5071171;28;20040;-76
2021/01/06 08:48:40;;;;;;;14.73;6.40;;;;;;;;;;5071313;28;20373;-76
2021/01/06 08:51:46;;;;;;;13.02;6.18;;;;;;;;;;5070606;28;20040;-75
2021/01/06 08:54:58;;;;;;;44.10;25.60;;;;;;;;;;5071034;28;20051;-76
2021/01/06 08:58:02;;;;;;;23.60;12.85;;;;;;;;;;5071184;28;20617;-75
2021/01/06 09:01:16;;;;;;;29.55;14.23;;;;;;;;;;5070916;28;20036;-75
2021/01/06 09:04:23;;;;;;;25.48;13.52;;;;;;;;;;5071330;28;20487;-76
2021/01/06 09:07:30;;;;;;;32.33;20.63;;;;;;;;;;5070060;28;20055;-75
2021/01/06 09:10:38;;;;;;;22.98;16.23;;;;;;;;;;5070659;28;20048;-75
2021/01/06 09:14:04;;;;;;;28.35;14.00;;;;;;;;;;5070800;28;20063;-75
2021/01/06 09:17:11;;;;;;;21.45;11.55;;;;;;;;;;5071217;28;20044;-75
2021/01/06 09:20:20;;;;;;;19.88;12.30;;;;;;;;;;5070931;28;20089;-75
2021/01/06 09:23:25;;;;;;;22.40;11.38;;;;;;;;;;5070136;28;20503;-76
2021/01/06 09:26:29;;;;;;;17.65;10.32;;;;;;;;;;5071021;28;20040;-76
2021/01/06 09:29:38;;;;;;;16.90;9.40;;;;;;;;;;5071099;28;20044;-76
2021/01/06 09:32:44;;;;;;;19.95;10.35;;;;;;;;;;5070804;28;20028;-76
2021/01/06 09:35:48;;;;;;;24.90;12.20;;;;;;;;;;5070700;28;20072;-76
2021/01/06 09:38:54;;;;;;;19.23;12.05;;;;;;;;;;5070169;28;20039;-75
2021/01/06 09:42:00;;;;;;;56.95;36.08;;;;;;;;;;5070740;28;20048;-76
2021/01/06 09:45:05;;;;;;;24.25;14.32;;;;;;;;;;5069749;28;20475;-76
2021/01/06 09:48:11;;;;;;;24.70;14.57;;;;;;;;;;5070784;28;20044;-76
2021/01/06 09:51:18;;;;;;;28.15;15.20;;;;;;;;;;5070240;28;20040;-76
2021/01/06 09:54:23;;;;;;;28.88;15.38;;;;;;;;;;5070523;28;20051;-75
2021/01/06 09:57:28;;;;;;;25.98;16.45;;;;;;;;;;5069972;28;20040;-76
2021/01/06 10:00:51;;;;;;;27.48;16.38;;;;;;;;;;5071079;28;20048;-76
2021/01/06 10:03:56;;;;;;;33.45;18.60;;;;;;;;;;5074429;28;20048;-76
2021/01/06 10:07:19;;;;;;;28.88;17.05;;;;;;;;;;5074134;28;20106;-76
2021/01/06 10:10:27;;;;;;;63.60;48.05;;;;;;;;;;5074198;28;20047;-75
2021/01/06 10:13:33;;;;;;;39.65;19.98;;;;;;;;;;5074095;28;20051;-76
2021/01/06 10:16:44;;;;;;;35.67;20.90;;;;;;;;;;5073699;28;20047;-76
2021/01/06 10:19:48;;;;;;;33.47;21.33;;;;;;;;;;5073450;28;20043;-76
2021/01/06 10:22:54;;;;;;;29.48;19.17;;;;;;;;;;5074255;28;20278;-75
2021/01/06 10:26:01;;;;;;;29.25;17.23;;;;;;;;;;5074151;28;20040;-75
2021/01/06 10:29:10;;;;;;;29.98;17.27;;;;;;;;;;5073764;28;20103;-75
2021/01/06 10:32:19;;;;;;;23.88;16.33;;;;;;;;;;5072836;28;20400;-75
2021/01/06 10:35:33;;;;;;;25.17;15.05;;;;;;;;;;5061188;28;20047;-75
2021/01/06 10:38:44;;;;;;;29.85;17.25;;;;;;;;;;5073468;28;20495;-75
2021/01/06 10:41:57;;;;;;;31.88;17.33;;;;;;;;;;5072739;28;20515;-75
2021/01/06 10:45:13;;;;;;;30.35;16.88;;;;;;;;;;5073335;28;20039;-75
2021/01/06 10:48:35;;;;;;;20.33;12.30;;;;;;;;;;5073535;28;20039;-75
2021/01/06 10:51:56;;;;;;;24.77;13.18;;;;;;;;;;5072403;28;20103;-75
2021/01/06 10:55:00;;;;;;;20.80;14.67;;;;;;;;;;5072521;28;20408;-76
2021/01/06 10:58:09;;;;;;;28.17;18.63;;;;;;;;;;5072718;28;20035;-75
2021/01/06 11:01:25;;;;;;;32.08;18.85;;;;;;;;;;5073285;28;20048;-75
2021/01/06 11:04:35;;;;;;;34.13;19.42;;;;;;;;;;5073271;28;20060;-76
2021/01/06 11:07:42;;;;;;;30.08;19.23;;;;;;;;;;5072397;28;20059;-75
2021/01/06 11:10:59;;;;;;;27.67;18.83;;;;;;;;;;5073144;28;20047;-76
2021/01/06 11:14:02;;;;;;;34.30;20.10;;;;;;;;;;5072363;28;20059;-75
2021/01/06 11:17:13;;;;;;;32.10;20.05;;;;;;;;;;5072471;28;20372;-75
2021/01/06 11:20:26;;;;;;;31.15;19.27;;;;;;;;;;5072737;28;20103;-75
2021/01/06 11:23:33;;;;;;;32.28;20.67;;;;;;;;;;5072291;28;20043;-75
2021/01/06 11:26:45;;;;;;;39.10;23.27;;;;;;;;;;5073081;28;20043;-75
2021/01/06 11:29:54;;;;;;;28.80;17.88;;;;;;;;;;5072804;28;20051;-76
2021/01/06 11:33:19;;;;;;;26.15;13.80;;;;;;;;;;5073087;28;20111;-76
2021/01/06 11:36:43;;;;;;;23.88;15.13;;;;;;;;;;5072746;28;20055;-76
2021/01/06 11:39:48;;;;;;;42.28;25.92;;;;;;;;;;5072927;28;20036;-76
2021/01/06 11:43:01;;;;;;;21.88;12.82;;;;;;;;;;5073261;28;20503;-76
2021/01/06 11:46:28;;;;;;;19.65;10.20;;;;;;;;;;5072767;28;20055;-76
2021/01/06 11:49:52;;;;;;;22.02;11.45;;;;;;;;;;5072838;28;20392;-76
2021/01/06 11:53:16;;;;;;;22.95;12.55;;;;;;;;;;5072334;28;20388;-76
2021/01/06 11:56:22;;;;;;;24.80;15.32;;;;;;;;;;5072509;28;20399;-76
2021/01/06 11:59:34;;;;;;;34.22;17.63;;;;;;;;;;5072208;28;20055;-76
2021/01/06 12:02:41;;;;;;;30.77;15.68;;;;;;;;;;5072387;28;20206;-76
2021/01/06 12:06:02;;;;;;;24.30;14.68;;;;;;;;;;5072233;28;20039;-76
2021/01/06 12:09:16;;;;;;;28.27;16.13;;;;;;;;;;5072078;28;20047;-75
2021/01/06 12:12:42;;;;;;;28.15;15.73;;;;;;;;;;5072248;28;20553;-76
2021/01/06 12:16:04;;;;;;;26.98;17.45;;;;;;;;;;5071812;28;20072;-76
2021/01/06 12:19:08;;;;;;;;;;;;;;;;;;5072186;28;20043;-76
2021/01/06 12:22:13;;;;;;;29.02;18.67;;;;;;;;;;5071771;28;19931;-76
2021/01/06 12:25:17;;;;;;;29.75;20.83;;;;;;;;;;5070676;28;20048;-76
2021/01/06 12:28:22;;;;;;;31.40;21.30;;;;;;;;;;5071855;28;20047;-76
2021/01/06 12:31:38;;;;;;;30.95;18.48;;;;;;;;;;5071677;28;20047;-76
2021/01/06 12:34:43;;;;;;;29.85;18.55;;;;;;;;;;5071327;28;20055;-76
2021/01/06 12:38:00;;;;;;;36.13;17.00;;;;;;;;;;5071434;28;20040;-76
2021/01/06 12:41:04;;;;;;;49.15;29.17;;;;;;;;;;5071436;28;20051;-76
2021/01/06 12:44:11;;;;;;;33.70;20.52;;;;;;;;;;5070778;28;20047;-76
2021/01/06 12:47:21;;;;;;;29.33;19.05;;;;;;;;;;5071583;28;20065;-76
2021/01/06 12:50:33;;;;;;;29.90;19.20;;;;;;;;;;5071245;28;20055;-76
2021/01/06 12:53:42;;;;;;;33.13;21.27;;;;;;;;;;5071572;28;20047;-77
2021/01/06 12:56:46;;;;;;;36.80;22.20;;;;;;;;;;5071304;28;20495;-76
2021/01/06 12:59:56;;;;;;;34.83;22.27;;;;;;;;;;5070272;28;20035;-76
2021/01/06 13:03:19;;;;;;;37.45;25.75;;;;;;;;;;5071213;28;20048;-75
2021/01/06 13:06:32;;;;;;;43.25;26.58;;;;;;;;;;5071149;28;20507;-75
2021/01/06 13:09:55;;;;;;;31.67;22.20;;;;;;;;;;5071284;28;20047;-76
2021/01/06 13:13:05;;;;;;;32.08;23.20;;;;;;;;;;5070680;28;20052;-76
2021/01/06 13:16:19;;;;;;;42.28;26.88;;;;;;;;;;5071315;28;20044;-75
2021/01/06 13:19:26;;;;;;;39.95;26.00;;;;;;;;;;5071243;28;20059;-76
2021/01/06 13:22:41;;;;;;;31.95;21.42;;;;;;;;;;5070823;28;20495;-76
2021/01/06 13:25:46;;;;;;;35.63;23.55;;;;;;;;;;5070859;28;20047;-75
2021/01/06 13:28:53;;;;;;;36.33;22.70;;;;;;;;;;5070850;28;20043;-75
2021/01/06 13:32:04;;;;;;;33.05;22.77;;;;;;;;;;5070737;28;20056;-75
2021/01/06 13:35:30;;;;;;;61.88;38.05;;;;;;;;;;5070187;28;20063;-74
2021/01/06 13:38:40;;;;;;;45.28;31.13;;;;;;;;;;5074917;28;20048;-75
2021/01/06 13:41:45;;;;;;;45.40;31.67;;;;;;;;;;5075056;28;20039;-75
2021/01/06 13:44:51;;;;;;;41.92;26.10;;;;;;;;;;5075062;28;20302;-75
2021/01/06 13:48:18;;;;;;;36.55;25.40;;;;;;;;;;5074973;28;20432;-75
2021/01/06 13:51:26;;;;;;;39.63;24.70;;;;;;;;;;5074231;28;20510;-75
2021/01/06 13:54:43;;;;;;;39.97;25.85;;;;;;;;;;5074663;28;20063;-75
2021/01/06 13:57:53;;;;;;;32.58;21.70;;;;;;;;;;5075071;28;20379;-75
2021/01/06 14:01:09;;;;;;;32.33;22.05;;;;;;;;;;5074695;28;20190;-76
2021/01/06 14:04:16;;;;;;;39.53;24.23;;;;;;;;;;5073651;28;20411;-76
2021/01/06 14:07:31;;;;;;;35.13;25.83;;;;;;;;;;5074611;28;20051;-76
2021/01/06 14:10:52;;;;;;;38.45;27.38;;;;;;;;;;5074102;28;20039;-76
2021/01/06 14:13:56;;;;;;;34.88;23.85;;;;;;;;;;5074403;28;20047;-75
2021/01/06 14:17:39;;;;;;;33.35;23.75;;;;;;;;;;5074319;28;20056;-76
2021/01/06 14:21:02;;;;;;;47.67;29.95;;;;;;;;;;5073065;28;20044;-75
2021/01/06 14:24:13;;;;;;;45.88;32.60;;;;;;;;;;5074190;28;20527;-76
2021/01/06 14:27:35;;;;;;;44.72;29.38;;;;;;;;;;5074030;28;20035;-76
2021/01/06 14:30:49;;;;;;;36.75;24.20;;;;;;;;;;5074080;28;20518;-76
2021/01/06 14:33:57;;;;;;;40.72;27.38;;;;;;;;;;5074048;28;20052;-77
2021/01/06 14:37:08;;;;;;;41.70;27.85;;;;;;;;;;5074061;28;20051;-75
2021/01/06 14:40:19;;;;;;;39.97;27.98;;;;;;;;;;5073749;28;20052;-76
2021/01/06 14:43:42;;;;;;;39.95;26.63;;;;;;;;;;5073953;28;20047;-76
2021/01/06 14:47:13;;;;;;;40.33;27.92;;;;;;;;;;5073212;28;20518;-76
2021/01/06 14:50:18;;;;;;;;;;;;;;;;;;5074165;28;20039;-76
2021/01/06 14:53:25;;;;;;;39.20;28.42;;;;;;;;;;5073821;28;20392;-76
2021/01/06 14:56:42;;;;;;;39.67;28.02;;;;;;;;;;5073547;28;20062;-76
2021/01/06 14:59:57;;;;;;;40.38;28.95;;;;;;;;;;5073621;28;20047;-76
2021/01/06 15:03:02;;;;;;;45.70;32.30;;;;;;;;;;5073462;28;20391;-76
2021/01/06 15:06:11;;;;;;;51.90;36.05;;;;;;;;;;5072523;28;20063;-76
2021/01/06 15:09:16;;;;;;;47.60;34.55;;;;;;;;;;5073322;28;20051;-75
2021/01/06 15:12:24;;;;;;;119.15;99.82;;;;;;;;;;5072436;28;20044;-74
2021/01/06 15:15:28;;;;;;;58.92;41.35;;;;;;;;;;5072979;28;20400;-75
2021/01/06 15:18:32;;;;;;;47.67;34.72;;;;;;;;;;5072141;28;20040;-75
2021/01/06 15:21:42;;;;;;;100.00;58.15;;;;;;;;;;5072000;28;20043;-75
2021/01/06 15:24:50;;;;;;;73.43;46.90;;;;;;;;;;5073038;28;20043;-75
2021/01/06 15:28:00;;;;;;;65.55;46.53;;;;;;;;;;5072709;28;20063;-72
2021/01/06 15:31:13;;;;;;;45.85;31.83;;;;;;;;;;5073002;28;20044;-75
2021/01/06 15:34:25;;;;;;;50.20;34.25;;;;;;;;;;5072094;28;20060;-76
2021/01/06 15:37:34;;;;;;;59.05;39.00;;;;;;;;;;5072889;28;20044;-76
2021/01/06 15:40:39;;;;;;;61.55;36.63;;;;;;;;;;5071596;28;20044;-76
2021/01/06 15:43:49;;;;;;;73.63;54.70;;;;;;;;;;5072431;28;20067;-69
2021/01/06 15:47:02;;;;;;;53.72;37.30;;;;;;;;;;5072132;28;20075;-75
2021/01/06 15:50:16;;;;;;;46.20;32.47;;;;;;;;;;5071352;28;20049;-73
2021/01/06 15:53:21;;;;;;;45.47;33.30;;;;;;;;;;5072562;28;20066;-76
2021/01/06 15:56:27;;;;;;;51.22;34.72;;;;;;;;;;5072255;28;20055;-77
2021/01/06 15:59:33;;;;;;;48.53;35.08;;;;;;;;;;5071879;28;20063;-77
2021/01/06 16:02:37;;;;;;;49.67;36.15;;;;;;;;;;5059551;28;20103;-77
2021/01/06 16:05:41;;;;;;;51.05;35.63;;;;;;;;;;5071045;28;20566;-76
2021/01/06 16:08:49;;;;;;;58.88;38.85;;;;;;;;;;5071929;28;20110;-77
2021/01/06 16:11:59;;;;;;;56.55;39.08;;;;;;;;;;5072253;28;20527;-77
2021/01/06 16:15:06;;;;;;;56.90;39.83;;;;;;;;;;5070895;28;20052;-78
2021/01/06 16:18:22;;;;;;;72.88;49.45;;;;;;;;;;5070713;28;20039;-78
2021/01/06 16:21:27;;;;;;;60.40;42.05;;;;;;;;;;5071311;28;20059;-77
2021/01/06 16:24:33;;;;;;;58.60;40.92;;;;;;;;;;5071745;28;20047;-77
2021/01/06 16:27:38;;;;;;;56.33;38.88;;;;;;;;;;5071511;28;20043;-78
2021/01/06 16:30:45;;;;;;;77.90;51.03;;;;;;;;;;5071575;28;20048;-78
2021/01/06 16:33:49;;;;;;;85.85;57.72;;;;;;;;;;5070682;28;20280;-78
2021/01/06 16:37:05;;;;;;;89.75;58.15;;;;;;;;;;5069321;28;20309;-77
2021/01/06 16:40:09;;;;;;;77.90;54.50;;;;;;;;;;5071096;28;20503;-77
2021/01/06 16:43:20;;;;;;;79.55;55.47;;;;;;;;;;5071106;28;20036;-78
2021/01/06 16:46:26;;;;;;;91.07;65.30;;;;;;;;;;5071326;28;20503;-78
2021/01/06 16:49:35;;;;;;;87.80;65.07;;;;;;;;;;5070651;28;20491;-79
2021/01/06 16:52:41;;;;;;;73.80;54.50;;;;;;;;;;5071550;28;20510;-79
2021/01/06 16:55:46;;;;;;;64.40;46.85;;;;;;;;;;5071263;28;20052;-80
2021/01/06 16:58:58;;;;;;;62.00;46.95;;;;;;;;;;5071390;28;20047;-79
2021/01/06 17:02:05;;;;;;;64.15;46.55;;;;;;;;;;5071283;28;20052;-81
2021/01/06 17:05:16;;;;;;;68.20;50.70;;;;;;;;;;5071474;28;20040;-78
2021/01/06 17:08:24;;;;;;;73.88;52.85;;;;;;;;;;5071030;28;20448;-78
2021/01/06 17:11:29;;;;;;;75.15;53.70;;;;;;;;;;5069959;28;20043;-80
2021/01/06 17:14:40;;;;;;;65.10;46.80;;;;;;;;;;5071396;28;20051;-84
2021/01/06 17:17:45;;;;;;;65.80;48.20;;;;;;;;;;5071612;28;20415;-80
2021/01/06 17:20:55;;;;;;;71.65;52.38;;;;;;;;;;5070310;28;20040;-80
2021/01/06 17:24:24;;;;;;;74.85;53.70;;;;;;;;;;5070512;28;20043;-79
2021/01/06 17:27:31;;;;;;;84.65;60.83;;;;;;;;;;5071380;28;20396;-79
2021/01/06 17:30:41;;;;;;;86.85;61.05;;;;;;;;;;5071108;28;20055;-79
2021/01/06 17:33:46;;;;;;;78.63;59.58;;;;;;;;;;5070524;28;20039;-80
2021/01/06 17:36:50;;;;;;;91.28;64.85;;;;;;;;;;5071569;28;20059;-78
2021/01/06 17:39:55;;;;;;;85.50;62.85;;;;;;;;;;5059241;28;20040;-79
2021/01/06 17:43:02;;;;;;;78.72;54.33;;;;;;;;;;5072295;28;20047;-79
2021/01/06 17:46:10;;;;;;;70.80;51.65;;;;;;;;;;5073130;28;20044;-78
2021/01/06 17:49:14;;;;;;;75.68;48.85;;;;;;;;;;5075134;28;20040;-79
2021/01/06 17:52:19;;;;;;;67.20;45.45;;;;;;;;;;5078786;28;20040;-81
2021/01/06 17:55:24;;;;;;;69.80;46.72;;;;;;;;;;5075782;28;20053;-79
2021/01/06 17:58:29;;;;;;;59.22;40.05;;;;;;;;;;5074023;28;20043;-79
2021/01/06 18:01:34;;;;;;;115.00;65.22;;;;;;;;;;5070850;28;20103;-79
2021/01/06 18:04:40;;;;;;;111.78;63.13;;;;;;;;;;5071322;28;20075;-79
2021/01/06 18:07:45;;;;;;;85.22;52.17;;;;;;;;;;5070143;28;20048;-78
2021/01/06 18:10:55;;;;;;;73.95;45.50;;;;;;;;;;5070976;28;20043;-79
2021/01/06 18:14:01;;;;;;;60.08;38.90;;;;;;;;;;5070886;28;20215;-80
2021/01/06 18:17:07;;;;;;;110.13;72.28;;;;;;;;;;5071018;28;20044;-79
2021/01/06 18:20:17;;;;;;;60.92;40.47;;;;;;;;;;5071127;28;20399;-79
2021/01/06 18:23:21;;;;;;;57.92;38.78;;;;;;;;;;5074310;28;20048;-79
2021/01/06 18:26:26;;;;;;;45.42;32.13;;;;;;;;;;5074644;28;20408;-80
2021/01/06 18:29:32;;;;;;;49.33;33.88;;;;;;;;;;5074383;28;20403;-78
2021/01/06 18:32:37;;;;;;;48.45;34.40;;;;;;;;;;5073820;28;20043;-79
2021/01/06 18:35:42;;;;;;;51.40;34.45;;;;;;;;;;5073635;28;20052;-79
2021/01/06 18:39:00;;;;;;;49.05;37.80;;;;;;;;;;5074806;28;20035;-81